sensor_id;sensor_type;location;lat;lon;timestamp;P1;durP1;ratioP1;P2;durP2;ratioP2
47147;SDS011;32900;47.498;8.738;2022-09-01T00:01:39;13.27;;;10.63;;
47147;SDS011;32900;47.498;8.738;2022-09-01T00:04:10;13.65;;;10.93;;
47147;SDS011;32900;47.498;8.738;2022-09-01T00:06:38;16.77;;;11.30;;
47147;SDS011;32900;47.498;8.738;2022-09-01T00:09:07;16.92;;;10.63;;
47147;SDS011;32900;47.498;8.738;2022-09-01T00:11:37;14.23;;;11.07;;
47147;SDS011;32900;47.498;8.738;2022-09-01T00:14:05;15.20;;;11.55;;
47147;SDS011;32900;47.498;8.738;2022-09-01T00:16:53;17.05;;;10.57;;
47147;SDS011;32900;47.498;8.738;2022-09-01T00:19:21;15.98;;;10.38;;
47147;SDS011;32900;47.498;8.738;2022-09-01T00:21:48;16.35;;;11.07;;
47147;SDS011;32900;47.498;8.738;2022-09-01T00:24:16;15.30;;;11.35;;
47147;SDS011;32900;47.498;8.738;2022-09-01T00:26:44;15.60;;;11.02;;
47147;SDS011;32900;47.498;8.738;2022-09-01T00:29:11;15.48;;;11.10;;
47147;SDS011;32900;47.498;8.738;2022-09-01T00:31:38;17.95;;;12.13;;
47147;SDS011;32900;47.498;8.738;2022-09-01T00:34:04;13.68;;;9.88;;
47147;SDS011;32900;47.498;8.738;2022-09-01T00:36:31;14.48;;;11.63;;
47147;SDS011;32900;47.498;8.738;2022-09-01T00:38:58;16.10;;;10.80;;
47147;SDS011;32900;47.498;8.738;2022-09-01T00:41:25;12.93;;;9.52;;
47147;SDS011;32900;47.498;8.738;2022-09-01T00:43:59;15.98;;;11.48;;
47147;SDS011;32900;47.498;8.738;2022-09-01T00:46:32;15.63;;;11.50;;
47147;SDS011;32900;47.498;8.738;2022-09-01T00:49:11;14.52;;;11.55;;
47147;SDS011;32900;47.498;8.738;2022-09-01T00:51:42;16.13;;;11.10;;
47147;SDS011;32900;47.498;8.738;2022-09-01T00:54:14;14.20;;;10.80;;
47147;SDS011;32900;47.498;8.738;2022-09-01T00:56:46;14.57;;;10.57;;
47147;SDS011;32900;47.498;8.738;2022-09-01T00:59:23;15.73;;;10.75;;
47147;SDS011;32900;47.498;8.738;2022-09-01T01:01:53;14.23;;;11.20;;
47147;SDS011;32900;47.498;8.738;2022-09-01T01:04:21;15.45;;;11.65;;
47147;SDS011;32900;47.498;8.738;2022-09-01T01:06:53;15.73;;;11.70;;
47147;SDS011;32900;47.498;8.738;2022-09-01T01:09:32;14.38;;;10.38;;
47147;SDS011;32900;47.498;8.738;2022-09-01T01:12:02;13.63;;;10.50;;
47147;SDS011;32900;47.498;8.738;2022-09-01T01:14:30;16.95;;;11.00;;
47147;SDS011;32900;47.498;8.738;2022-09-01T01:17:02;16.52;;;11.30;;
47147;SDS011;32900;47.498;8.738;2022-09-01T01:25:32;14.55;;;10.00;;
47147;SDS011;32900;47.498;8.738;2022-09-01T01:28:03;15.75;;;12.00;;
47147;SDS011;32900;47.498;8.738;2022-09-01T01:30:40;18.25;;;12.70;;
47147;SDS011;32900;47.498;8.738;2022-09-01T01:33:09;17.08;;;12.20;;
47147;SDS011;32900;47.498;8.738;2022-09-01T01:35:36;17.75;;;12.10;;
47147;SDS011;32900;47.498;8.738;2022-09-01T01:38:05;18.80;;;11.65;;
47147;SDS011;32900;47.498;8.738;2022-09-01T01:40:33;16.00;;;12.30;;
47147;SDS011;32900;47.498;8.738;2022-09-01T01:43:01;14.90;;;12.35;;
47147;SDS011;32900;47.498;8.738;2022-09-01T01:45:29;16.83;;;11.48;;
47147;SDS011;32900;47.498;8.738;2022-09-01T01:47:56;14.88;;;11.10;;
47147;SDS011;32900;47.498;8.738;2022-09-01T01:50:24;19.90;;;11.30;;
47147;SDS011;32900;47.498;8.738;2022-09-01T01:53:01;15.30;;;11.25;;
47147;SDS011;32900;47.498;8.738;2022-09-01T01:55:36;16.35;;;11.32;;
47147;SDS011;32900;47.498;8.738;2022-09-01T01:58:05;15.25;;;11.20;;
47147;SDS011;32900;47.498;8.738;2022-09-01T02:00:37;18.58;;;12.23;;
47147;SDS011;32900;47.498;8.738;2022-09-01T02:03:04;18.55;;;12.13;;
47147;SDS011;32900;47.498;8.738;2022-09-01T02:05:34;17.50;;;12.90;;
47147;SDS011;32900;47.498;8.738;2022-09-01T02:08:03;15.68;;;11.30;;
47147;SDS011;32900;47.498;8.738;2022-09-01T02:10:41;17.40;;;11.88;;
47147;SDS011;32900;47.498;8.738;2022-09-01T02:13:11;15.40;;;11.60;;
47147;SDS011;32900;47.498;8.738;2022-09-01T02:15:43;18.17;;;11.80;;
47147;SDS011;32900;47.498;8.738;2022-09-01T02:18:13;18.42;;;12.68;;
47147;SDS011;32900;47.498;8.738;2022-09-01T02:20:47;17.90;;;12.50;;
47147;SDS011;32900;47.498;8.738;2022-09-01T02:58:48;22.92;;;16.10;;
47147;SDS011;32900;47.498;8.738;2022-09-01T03:01:20;18.60;;;14.88;;
47147;SDS011;32900;47.498;8.738;2022-09-01T03:03:53;22.23;;;16.05;;
47147;SDS011;32900;47.498;8.738;2022-09-01T03:06:22;20.45;;;15.50;;
47147;SDS011;32900;47.498;8.738;2022-09-01T03:08:51;22.25;;;16.65;;
47147;SDS011;32900;47.498;8.738;2022-09-01T03:11:20;22.55;;;16.40;;
47147;SDS011;32900;47.498;8.738;2022-09-01T03:13:49;21.35;;;17.15;;
47147;SDS011;32900;47.498;8.738;2022-09-01T03:16:18;22.42;;;16.42;;
47147;SDS011;32900;47.498;8.738;2022-09-01T03:18:47;20.55;;;14.65;;
47147;SDS011;32900;47.498;8.738;2022-09-01T03:21:15;21.30;;;15.23;;
47147;SDS011;32900;47.498;8.738;2022-09-01T03:23:43;18.33;;;14.98;;
47147;SDS011;32900;47.498;8.738;2022-09-01T03:26:11;23.42;;;15.63;;
47147;SDS011;32900;47.498;8.738;2022-09-01T03:28:39;19.10;;;15.32;;
47147;SDS011;32900;47.498;8.738;2022-09-01T03:31:06;21.45;;;16.42;;
47147;SDS011;32900;47.498;8.738;2022-09-01T03:33:34;20.40;;;14.98;;
47147;SDS011;32900;47.498;8.738;2022-09-01T03:36:02;18.90;;;14.88;;
47147;SDS011;32900;47.498;8.738;2022-09-01T03:38:40;20.35;;;15.68;;
47147;SDS011;32900;47.498;8.738;2022-09-01T03:41:08;24.08;;;16.55;;
47147;SDS011;32900;47.498;8.738;2022-09-01T03:43:38;19.10;;;15.48;;
47147;SDS011;32900;47.498;8.738;2022-09-01T03:46:12;21.42;;;16.35;;
47147;SDS011;32900;47.498;8.738;2022-09-01T03:48:51;22.83;;;17.25;;
47147;SDS011;32900;47.498;8.738;2022-09-01T03:51:20;22.23;;;16.27;;
47147;SDS011;32900;47.498;8.738;2022-09-01T03:53:49;23.50;;;18.20;;
47147;SDS011;32900;47.498;8.738;2022-09-01T03:56:19;22.58;;;17.60;;
47147;SDS011;32900;47.498;8.738;2022-09-01T03:58:49;24.42;;;17.40;;
47147;SDS011;32900;47.498;8.738;2022-09-01T04:01:17;21.38;;;16.80;;
47147;SDS011;32900;47.498;8.738;2022-09-01T04:03:44;25.52;;;18.38;;
47147;SDS011;32900;47.498;8.738;2022-09-01T04:06:15;23.17;;;17.20;;
47147;SDS011;32900;47.498;8.738;2022-09-01T04:08:49;25.08;;;17.15;;
47147;SDS011;32900;47.498;8.738;2022-09-01T04:11:22;28.02;;;16.90;;
47147;SDS011;32900;47.498;8.738;2022-09-01T04:13:50;23.38;;;18.15;;
47147;SDS011;32900;47.498;8.738;2022-09-01T04:16:22;21.55;;;16.98;;
47147;SDS011;32900;47.498;8.738;2022-09-01T04:19:12;24.05;;;17.20;;
47147;SDS011;32900;47.498;8.738;2022-09-01T04:21:46;23.17;;;17.30;;
47147;SDS011;32900;47.498;8.738;2022-09-01T04:24:19;21.63;;;17.40;;
47147;SDS011;32900;47.498;8.738;2022-09-01T04:26:46;23.33;;;15.93;;
47147;SDS011;32900;47.498;8.738;2022-09-01T04:29:15;22.38;;;17.83;;
47147;SDS011;32900;47.498;8.738;2022-09-01T04:31:44;22.02;;;17.33;;
47147;SDS011;32900;47.498;8.738;2022-09-01T04:34:14;22.02;;;16.38;;
47147;SDS011;32900;47.498;8.738;2022-09-01T04:36:41;22.42;;;17.33;;
47147;SDS011;32900;47.498;8.738;2022-09-01T04:39:10;21.15;;;16.88;;
47147;SDS011;32900;47.498;8.738;2022-09-01T04:41:41;24.30;;;17.75;;
47147;SDS011;32900;47.498;8.738;2022-09-01T04:44:11;23.98;;;18.85;;
47147;SDS011;32900;47.498;8.738;2022-09-01T04:46:42;26.90;;;17.52;;
47147;SDS011;32900;47.498;8.738;2022-09-01T04:49:11;26.10;;;18.85;;
47147;SDS011;32900;47.498;8.738;2022-09-01T04:51:45;31.52;;;19.48;;
47147;SDS011;32900;47.498;8.738;2022-09-01T04:54:19;23.25;;;18.85;;
47147;SDS011;32900;47.498;8.738;2022-09-01T04:56:49;26.00;;;20.23;;
47147;SDS011;32900;47.498;8.738;2022-09-01T04:59:18;25.20;;;19.25;;
47147;SDS011;32900;47.498;8.738;2022-09-01T05:01:47;23.70;;;18.50;;
47147;SDS011;32900;47.498;8.738;2022-09-01T05:06:50;23.30;;;16.67;;
47147;SDS011;32900;47.498;8.738;2022-09-01T05:09:23;24.63;;;17.67;;
47147;SDS011;32900;47.498;8.738;2022-09-01T05:11:50;24.70;;;18.80;;
47147;SDS011;32900;47.498;8.738;2022-09-01T05:14:18;22.70;;;17.80;;
47147;SDS011;32900;47.498;8.738;2022-09-01T05:16:48;26.23;;;18.00;;
47147;SDS011;32900;47.498;8.738;2022-09-01T05:19:16;23.35;;;18.42;;
47147;SDS011;32900;47.498;8.738;2022-09-01T05:21:46;26.38;;;19.23;;
47147;SDS011;32900;47.498;8.738;2022-09-01T05:24:14;21.02;;;16.85;;
47147;SDS011;32900;47.498;8.738;2022-09-01T05:26:42;21.27;;;16.27;;
47147;SDS011;32900;47.498;8.738;2022-09-01T05:29:12;23.80;;;17.77;;
47147;SDS011;32900;47.498;8.738;2022-09-01T05:31:41;23.67;;;17.30;;
47147;SDS011;32900;47.498;8.738;2022-09-01T05:34:12;24.40;;;18.10;;
47147;SDS011;32900;47.498;8.738;2022-09-01T05:36:41;23.92;;;17.40;;
47147;SDS011;32900;47.498;8.738;2022-09-01T05:39:09;27.10;;;18.52;;
47147;SDS011;32900;47.498;8.738;2022-09-01T05:41:40;27.38;;;18.33;;
47147;SDS011;32900;47.498;8.738;2022-09-01T05:44:07;23.33;;;17.33;;
47147;SDS011;32900;47.498;8.738;2022-09-01T05:46:35;24.73;;;17.05;;
47147;SDS011;32900;47.498;8.738;2022-09-01T05:49:03;24.33;;;18.48;;
47147;SDS011;32900;47.498;8.738;2022-09-01T05:51:32;21.55;;;16.60;;
47147;SDS011;32900;47.498;8.738;2022-09-01T05:54:16;25.85;;;16.38;;
47147;SDS011;32900;47.498;8.738;2022-09-01T05:56:47;22.13;;;17.23;;
47147;SDS011;32900;47.498;8.738;2022-09-01T05:59:15;20.77;;;16.35;;
47147;SDS011;32900;47.498;8.738;2022-09-01T06:01:51;28.45;;;17.27;;
47147;SDS011;32900;47.498;8.738;2022-09-01T06:04:19;21.55;;;15.45;;
47147;SDS011;32900;47.498;8.738;2022-09-01T06:06:47;22.95;;;16.60;;
47147;SDS011;32900;47.498;8.738;2022-09-01T06:09:35;22.52;;;15.93;;
47147;SDS011;32900;47.498;8.738;2022-09-01T06:12:04;23.02;;;16.95;;
47147;SDS011;32900;47.498;8.738;2022-09-01T06:14:31;20.83;;;15.07;;
47147;SDS011;32900;47.498;8.738;2022-09-01T06:16:58;23.20;;;16.38;;
47147;SDS011;32900;47.498;8.738;2022-09-01T06:19:26;20.38;;;16.35;;
47147;SDS011;32900;47.498;8.738;2022-09-01T06:21:53;20.95;;;16.58;;
47147;SDS011;32900;47.498;8.738;2022-09-01T06:24:21;24.20;;;16.60;;
47147;SDS011;32900;47.498;8.738;2022-09-01T06:26:48;22.23;;;15.25;;
47147;SDS011;32900;47.498;8.738;2022-09-01T06:29:15;23.73;;;16.25;;
47147;SDS011;32900;47.498;8.738;2022-09-01T06:31:43;21.40;;;15.23;;
47147;SDS011;32900;47.498;8.738;2022-09-01T06:34:11;21.08;;;15.60;;
47147;SDS011;32900;47.498;8.738;2022-09-01T06:36:43;24.63;;;16.80;;
47147;SDS011;32900;47.498;8.738;2022-09-01T06:39:12;21.75;;;14.70;;
47147;SDS011;32900;47.498;8.738;2022-09-01T06:41:48;22.80;;;16.13;;
47147;SDS011;32900;47.498;8.738;2022-09-01T06:44:18;19.48;;;15.30;;
47147;SDS011;32900;47.498;8.738;2022-09-01T06:46:48;23.17;;;15.55;;
47147;SDS011;32900;47.498;8.738;2022-09-01T06:49:17;21.58;;;15.68;;
47147;SDS011;32900;47.498;8.738;2022-09-01T06:51:46;21.65;;;15.85;;
47147;SDS011;32900;47.498;8.738;2022-09-01T06:54:14;18.45;;;15.18;;
47147;SDS011;32900;47.498;8.738;2022-09-01T06:56:46;18.73;;;13.57;;
47147;SDS011;32900;47.498;8.738;2022-09-01T07:01:45;20.00;;;13.65;;
47147;SDS011;32900;47.498;8.738;2022-09-01T07:04:15;19.77;;;14.38;;
47147;SDS011;32900;47.498;8.738;2022-09-01T07:06:45;17.27;;;13.70;;
47147;SDS011;32900;47.498;8.738;2022-09-01T07:09:36;16.75;;;12.80;;
47147;SDS011;32900;47.498;8.738;2022-09-01T07:12:15;17.25;;;12.32;;
47147;SDS011;32900;47.498;8.738;2022-09-01T07:14:53;20.05;;;13.77;;
47147;SDS011;32900;47.498;8.738;2022-09-01T07:17:45;21.58;;;14.57;;
47147;SDS011;32900;47.498;8.738;2022-09-01T07:20:25;16.80;;;12.45;;
47147;SDS011;32900;47.498;8.738;2022-09-01T07:22:55;17.02;;;12.43;;
47147;SDS011;32900;47.498;8.738;2022-09-01T07:25:32;20.58;;;12.60;;
47147;SDS011;32900;47.498;8.738;2022-09-01T07:28:22;17.67;;;12.27;;
47147;SDS011;32900;47.498;8.738;2022-09-01T07:30:50;14.38;;;11.02;;
47147;SDS011;32900;47.498;8.738;2022-09-01T07:33:22;16.33;;;11.65;;
47147;SDS011;32900;47.498;8.738;2022-09-01T07:36:09;16.33;;;11.35;;
47147;SDS011;32900;47.498;8.738;2022-09-01T07:38:53;16.52;;;11.43;;
47147;SDS011;32900;47.498;8.738;2022-09-01T07:41:40;15.77;;;11.85;;
47147;SDS011;32900;47.498;8.738;2022-09-01T07:44:27;16.40;;;11.02;;
47147;SDS011;32900;47.498;8.738;2022-09-01T07:46:53;15.20;;;10.40;;
47147;SDS011;32900;47.498;8.738;2022-09-01T07:49:40;14.57;;;10.68;;
47147;SDS011;32900;47.498;8.738;2022-09-01T07:52:27;17.80;;;11.27;;
47147;SDS011;32900;47.498;8.738;2022-09-01T07:54:54;16.23;;;10.30;;
47147;SDS011;32900;47.498;8.738;2022-09-01T07:57:21;13.65;;;10.10;;
47147;SDS011;32900;47.498;8.738;2022-09-01T07:59:48;14.85;;;10.07;;
47147;SDS011;32900;47.498;8.738;2022-09-01T08:02:16;13.02;;;9.93;;
47147;SDS011;32900;47.498;8.738;2022-09-01T08:04:44;14.77;;;10.73;;
47147;SDS011;32900;47.498;8.738;2022-09-01T08:07:11;12.98;;;9.60;;
47147;SDS011;32900;47.498;8.738;2022-09-01T08:09:42;13.10;;;8.52;;
47147;SDS011;32900;47.498;8.738;2022-09-01T08:12:10;13.25;;;9.88;;
47147;SDS011;32900;47.498;8.738;2022-09-01T08:14:37;13.27;;;8.95;;
47147;SDS011;32900;47.498;8.738;2022-09-01T08:17:04;12.10;;;8.93;;
47147;SDS011;32900;47.498;8.738;2022-09-01T08:19:51;10.85;;;8.52;;
47147;SDS011;32900;47.498;8.738;2022-09-01T08:22:19;13.25;;;9.20;;
47147;SDS011;32900;47.498;8.738;2022-09-01T08:24:49;12.48;;;9.23;;
47147;SDS011;32900;47.498;8.738;2022-09-01T08:27:17;11.77;;;9.30;;
47147;SDS011;32900;47.498;8.738;2022-09-01T08:29:44;12.35;;;8.93;;
47147;SDS011;32900;47.498;8.738;2022-09-01T08:32:10;13.32;;;9.02;;
47147;SDS011;32900;47.498;8.738;2022-09-01T08:34:38;13.85;;;8.52;;
47147;SDS011;32900;47.498;8.738;2022-09-01T08:37:05;11.88;;;8.43;;
47147;SDS011;32900;47.498;8.738;2022-09-01T08:39:32;11.30;;;8.23;;
47147;SDS011;32900;47.498;8.738;2022-09-01T08:47:54;12.07;;;7.55;;
47147;SDS011;32900;47.498;8.738;2022-09-01T08:50:51;10.52;;;6.97;;
47147;SDS011;32900;47.498;8.738;2022-09-01T08:53:26;11.18;;;6.75;;
47147;SDS011;32900;47.498;8.738;2022-09-01T08:55:58;12.63;;;7.07;;
47147;SDS011;32900;47.498;8.738;2022-09-01T08:58:27;13.10;;;6.47;;
47147;SDS011;32900;47.498;8.738;2022-09-01T09:00:58;8.57;;;5.93;;
47147;SDS011;32900;47.498;8.738;2022-09-01T09:09:33;7.95;;;6.43;;
47147;SDS011;32900;47.498;8.738;2022-09-01T09:12:27;8.73;;;5.57;;
47147;SDS011;32900;47.498;8.738;2022-09-01T09:17:46;8.95;;;5.95;;
47147;SDS011;32900;47.498;8.738;2022-09-01T09:20:26;8.57;;;5.18;;
47147;SDS011;32900;47.498;8.738;2022-09-01T09:22:54;7.10;;;5.20;;
47147;SDS011;32900;47.498;8.738;2022-09-01T09:25:24;6.65;;;4.88;;
47147;SDS011;32900;47.498;8.738;2022-09-01T09:27:54;6.80;;;4.72;;
47147;SDS011;32900;47.498;8.738;2022-09-01T09:30:29;9.00;;;5.75;;
47147;SDS011;32900;47.498;8.738;2022-09-01T09:32:59;7.05;;;4.78;;
47147;SDS011;32900;47.498;8.738;2022-09-01T09:35:50;7.35;;;4.53;;
47147;SDS011;32900;47.498;8.738;2022-09-01T09:38:20;11.05;;;5.18;;
47147;SDS011;32900;47.498;8.738;2022-09-01T09:40:55;8.13;;;4.63;;
47147;SDS011;32900;47.498;8.738;2022-09-01T09:43:56;7.13;;;5.20;;
47147;SDS011;32900;47.498;8.738;2022-09-01T09:46:44;7.63;;;4.72;;
47147;SDS011;32900;47.498;8.738;2022-09-01T09:49:32;6.57;;;4.55;;
47147;SDS011;32900;47.498;8.738;2022-09-01T09:52:16;6.55;;;4.53;;
47147;SDS011;32900;47.498;8.738;2022-09-01T09:55:01;7.38;;;4.57;;
47147;SDS011;32900;47.498;8.738;2022-09-01T09:57:30;6.80;;;4.85;;
47147;SDS011;32900;47.498;8.738;2022-09-01T10:00:06;8.30;;;5.22;;
47147;SDS011;32900;47.498;8.738;2022-09-01T10:02:42;7.72;;;5.68;;
47147;SDS011;32900;47.498;8.738;2022-09-01T10:07:59;7.85;;;5.10;;
47147;SDS011;32900;47.498;8.738;2022-09-01T10:13:09;7.47;;;4.70;;
47147;SDS011;32900;47.498;8.738;2022-09-01T10:15:39;8.05;;;5.97;;
47147;SDS011;32900;47.498;8.738;2022-09-01T10:18:12;10.23;;;5.70;;
47147;SDS011;32900;47.498;8.738;2022-09-01T10:23:30;7.20;;;4.57;;
47147;SDS011;32900;47.498;8.738;2022-09-01T10:28:37;5.93;;;4.10;;
47147;SDS011;32900;47.498;8.738;2022-09-01T10:31:26;5.88;;;3.33;;
47147;SDS011;32900;47.498;8.738;2022-09-01T10:33:58;6.95;;;3.80;;
47147;SDS011;32900;47.498;8.738;2022-09-01T10:36:30;5.00;;;3.80;;
47147;SDS011;32900;47.498;8.738;2022-09-01T10:39:00;5.15;;;3.63;;
47147;SDS011;32900;47.498;8.738;2022-09-01T10:44:10;5.80;;;3.00;;
47147;SDS011;32900;47.498;8.738;2022-09-01T10:46:44;5.68;;;3.30;;
47147;SDS011;32900;47.498;8.738;2022-09-01T10:51:55;5.18;;;3.17;;
47147;SDS011;32900;47.498;8.738;2022-09-01T11:00:08;6.00;;;3.10;;
47147;SDS011;32900;47.498;8.738;2022-09-01T11:03:36;4.63;;;3.25;;
47147;SDS011;32900;47.498;8.738;2022-09-01T11:06:30;5.28;;;3.10;;
47147;SDS011;32900;47.498;8.738;2022-09-01T11:09:00;5.25;;;3.10;;
47147;SDS011;32900;47.498;8.738;2022-09-01T11:14:28;4.85;;;2.80;;
47147;SDS011;32900;47.498;8.738;2022-09-01T11:22:22;4.10;;;2.85;;
47147;SDS011;32900;47.498;8.738;2022-09-01T11:28:36;6.38;;;3.13;;
47147;SDS011;32900;47.498;8.738;2022-09-01T11:33:37;3.90;;;2.75;;
47147;SDS011;32900;47.498;8.738;2022-09-01T11:44:12;4.95;;;2.80;;
47147;SDS011;32900;47.498;8.738;2022-09-01T11:46:42;3.92;;;2.45;;
47147;SDS011;32900;47.498;8.738;2022-09-01T11:49:25;3.83;;;2.70;;
47147;SDS011;32900;47.498;8.738;2022-09-01T11:51:54;4.38;;;2.88;;
47147;SDS011;32900;47.498;8.738;2022-09-01T11:54:23;3.83;;;2.70;;
47147;SDS011;32900;47.498;8.738;2022-09-01T11:56:50;4.68;;;3.10;;
47147;SDS011;32900;47.498;8.738;2022-09-01T11:59:31;4.00;;;2.83;;
47147;SDS011;32900;47.498;8.738;2022-09-01T12:02:03;5.28;;;2.85;;
47147;SDS011;32900;47.498;8.738;2022-09-01T12:04:32;3.97;;;2.78;;
47147;SDS011;32900;47.498;8.738;2022-09-01T12:09:31;4.90;;;2.80;;
47147;SDS011;32900;47.498;8.738;2022-09-01T12:14:26;4.38;;;2.88;;
47147;SDS011;32900;47.498;8.738;2022-09-01T12:17:18;4.85;;;2.97;;
47147;SDS011;32900;47.498;8.738;2022-09-01T12:22:15;4.70;;;2.72;;
47147;SDS011;32900;47.498;8.738;2022-09-01T12:24:46;4.55;;;2.53;;
47147;SDS011;32900;47.498;8.738;2022-09-01T12:27:15;3.13;;;2.10;;
47147;SDS011;32900;47.498;8.738;2022-09-01T12:29:43;5.05;;;2.40;;
47147;SDS011;32900;47.498;8.738;2022-09-01T12:32:10;5.55;;;2.65;;
47147;SDS011;32900;47.498;8.738;2022-09-01T12:35:13;5.25;;;2.38;;
47147;SDS011;32900;47.498;8.738;2022-09-01T12:37:41;5.50;;;2.55;;
47147;SDS011;32900;47.498;8.738;2022-09-01T12:40:20;3.90;;;2.67;;
47147;SDS011;32900;47.498;8.738;2022-09-01T12:42:50;4.28;;;2.38;;
47147;SDS011;32900;47.498;8.738;2022-09-01T12:45:37;4.03;;;2.50;;
47147;SDS011;32900;47.498;8.738;2022-09-01T12:48:28;4.35;;;2.75;;
47147;SDS011;32900;47.498;8.738;2022-09-01T12:51:02;4.85;;;2.80;;
47147;SDS011;32900;47.498;8.738;2022-09-01T12:53:34;4.57;;;2.50;;
47147;SDS011;32900;47.498;8.738;2022-09-01T12:56:48;3.97;;;2.58;;
47147;SDS011;32900;47.498;8.738;2022-09-01T13:01:43;4.30;;;3.03;;
47147;SDS011;32900;47.498;8.738;2022-09-01T13:04:11;6.95;;;3.75;;
47147;SDS011;32900;47.498;8.738;2022-09-01T13:06:54;3.85;;;2.80;;
47147;SDS011;32900;47.498;8.738;2022-09-01T13:09:29;4.05;;;3.03;;
47147;SDS011;32900;47.498;8.738;2022-09-01T13:14:42;5.32;;;2.67;;
47147;SDS011;32900;47.498;8.738;2022-09-01T13:17:09;4.20;;;2.50;;
47147;SDS011;32900;47.498;8.738;2022-09-01T13:19:39;4.85;;;2.97;;
47147;SDS011;32900;47.498;8.738;2022-09-01T13:22:07;5.85;;;2.63;;
47147;SDS011;32900;47.498;8.738;2022-09-01T13:24:33;3.65;;;2.58;;
47147;SDS011;32900;47.498;8.738;2022-09-01T13:27:00;3.03;;;2.30;;
47147;SDS011;32900;47.498;8.738;2022-09-01T13:29:47;3.75;;;2.45;;
47147;SDS011;32900;47.498;8.738;2022-09-01T13:32:15;3.47;;;2.33;;
47147;SDS011;32900;47.498;8.738;2022-09-01T13:34:47;4.07;;;2.40;;
47147;SDS011;32900;47.498;8.738;2022-09-01T13:37:16;4.03;;;2.70;;
47147;SDS011;32900;47.498;8.738;2022-09-01T13:39:44;4.25;;;2.65;;
47147;SDS011;32900;47.498;8.738;2022-09-01T13:42:12;3.50;;;2.50;;
47147;SDS011;32900;47.498;8.738;2022-09-01T13:44:42;3.95;;;2.85;;
47147;SDS011;32900;47.498;8.738;2022-09-01T13:47:11;5.28;;;2.60;;
47147;SDS011;32900;47.498;8.738;2022-09-01T13:49:55;5.90;;;2.58;;
47147;SDS011;32900;47.498;8.738;2022-09-01T13:52:41;5.05;;;2.45;;
47147;SDS011;32900;47.498;8.738;2022-09-01T13:55:09;4.43;;;2.50;;
47147;SDS011;32900;47.498;8.738;2022-09-01T13:57:40;3.90;;;2.50;;
47147;SDS011;32900;47.498;8.738;2022-09-01T14:00:08;3.63;;;2.65;;
47147;SDS011;32900;47.498;8.738;2022-09-01T14:02:38;4.60;;;2.75;;
47147;SDS011;32900;47.498;8.738;2022-09-01T14:05:07;4.15;;;2.45;;
47147;SDS011;32900;47.498;8.738;2022-09-01T14:07:34;3.58;;;2.30;;
47147;SDS011;32900;47.498;8.738;2022-09-01T14:10:02;3.30;;;2.10;;
47147;SDS011;32900;47.498;8.738;2022-09-01T14:12:30;3.85;;;2.55;;
47147;SDS011;32900;47.498;8.738;2022-09-01T14:14:57;4.65;;;2.65;;
47147;SDS011;32900;47.498;8.738;2022-09-01T14:17:43;3.85;;;2.20;;
47147;SDS011;32900;47.498;8.738;2022-09-01T14:20:12;3.03;;;1.85;;
47147;SDS011;32900;47.498;8.738;2022-09-01T14:22:43;3.40;;;2.50;;
47147;SDS011;32900;47.498;8.738;2022-09-01T14:25:11;4.22;;;2.15;;
47147;SDS011;32900;47.498;8.738;2022-09-01T14:27:38;4.47;;;3.00;;
47147;SDS011;32900;47.498;8.738;2022-09-01T14:30:14;4.03;;;2.63;;
47147;SDS011;32900;47.498;8.738;2022-09-01T14:32:44;3.53;;;2.65;;
47147;SDS011;32900;47.498;8.738;2022-09-01T14:35:11;6.78;;;3.65;;
47147;SDS011;32900;47.498;8.738;2022-09-01T14:37:38;3.25;;;2.13;;
47147;SDS011;32900;47.498;8.738;2022-09-01T14:40:06;3.47;;;2.28;;
47147;SDS011;32900;47.498;8.738;2022-09-01T14:42:41;3.75;;;2.58;;
47147;SDS011;32900;47.498;8.738;2022-09-01T14:45:15;3.78;;;2.10;;
47147;SDS011;32900;47.498;8.738;2022-09-01T14:47:48;3.83;;;2.30;;
47147;SDS011;32900;47.498;8.738;2022-09-01T14:50:18;3.07;;;2.30;;
47147;SDS011;32900;47.498;8.738;2022-09-01T14:52:49;4.43;;;2.67;;
47147;SDS011;32900;47.498;8.738;2022-09-01T14:55:19;3.88;;;2.70;;
47147;SDS011;32900;47.498;8.738;2022-09-01T14:57:50;4.80;;;2.33;;
47147;SDS011;32900;47.498;8.738;2022-09-01T15:00:20;3.42;;;2.35;;
47147;SDS011;32900;47.498;8.738;2022-09-01T15:02:50;2.90;;;2.13;;
47147;SDS011;32900;47.498;8.738;2022-09-01T15:05:17;4.25;;;2.60;;
47147;SDS011;32900;47.498;8.738;2022-09-01T15:07:45;3.28;;;2.53;;
47147;SDS011;32900;47.498;8.738;2022-09-01T15:10:14;3.75;;;2.10;;
47147;SDS011;32900;47.498;8.738;2022-09-01T15:12:51;3.60;;;2.08;;
47147;SDS011;32900;47.498;8.738;2022-09-01T15:15:19;2.67;;;1.80;;
47147;SDS011;32900;47.498;8.738;2022-09-01T15:17:46;3.17;;;2.05;;
47147;SDS011;32900;47.498;8.738;2022-09-01T15:50:21;3.70;;;2.33;;
47147;SDS011;32900;47.498;8.738;2022-09-01T15:55:26;4.90;;;2.43;;
47147;SDS011;32900;47.498;8.738;2022-09-01T15:58:02;3.83;;;2.20;;
47147;SDS011;32900;47.498;8.738;2022-09-01T16:00:28;7.35;;;2.00;;
47147;SDS011;32900;47.498;8.738;2022-09-01T16:02:55;3.20;;;2.35;;
47147;SDS011;32900;47.498;8.738;2022-09-01T16:05:27;3.65;;;2.20;;
47147;SDS011;32900;47.498;8.738;2022-09-01T16:07:58;3.60;;;2.42;;
47147;SDS011;32900;47.498;8.738;2022-09-01T16:10:27;3.33;;;2.05;;
47147;SDS011;32900;47.498;8.738;2022-09-01T16:13:00;3.03;;;2.10;;
47147;SDS011;32900;47.498;8.738;2022-09-01T16:15:27;3.80;;;2.08;;
47147;SDS011;32900;47.498;8.738;2022-09-01T16:23:21;3.75;;;2.50;;
47147;SDS011;32900;47.498;8.738;2022-09-01T16:25:49;3.95;;;2.60;;
47147;SDS011;32900;47.498;8.738;2022-09-01T16:30:55;4.65;;;2.47;;
47147;SDS011;32900;47.498;8.738;2022-09-01T16:33:25;4.85;;;2.40;;
47147;SDS011;32900;47.498;8.738;2022-09-01T16:38:46;3.80;;;2.65;;
47147;SDS011;32900;47.498;8.738;2022-09-01T16:44:33;4.60;;;2.40;;
47147;SDS011;32900;47.498;8.738;2022-09-01T16:49:55;4.07;;;2.40;;
47147;SDS011;32900;47.498;8.738;2022-09-01T17:00:42;5.75;;;2.92;;
47147;SDS011;32900;47.498;8.738;2022-09-01T17:03:15;4.20;;;2.58;;
47147;SDS011;32900;47.498;8.738;2022-09-01T17:05:47;5.22;;;2.80;;
47147;SDS011;32900;47.498;8.738;2022-09-01T17:08:30;4.40;;;2.33;;
47147;SDS011;32900;47.498;8.738;2022-09-01T17:11:06;4.88;;;3.10;;
47147;SDS011;32900;47.498;8.738;2022-09-01T17:13:39;4.95;;;3.20;;
47147;SDS011;32900;47.498;8.738;2022-09-01T17:19:20;5.13;;;2.67;;
47147;SDS011;32900;47.498;8.738;2022-09-01T17:21:48;4.18;;;2.83;;
47147;SDS011;32900;47.498;8.738;2022-09-01T17:29:50;4.35;;;2.88;;
47147;SDS011;32900;47.498;8.738;2022-09-01T17:35:31;4.90;;;2.75;;
47147;SDS011;32900;47.498;8.738;2022-09-01T17:38:58;5.00;;;2.55;;
47147;SDS011;32900;47.498;8.738;2022-09-01T17:41:24;5.85;;;3.17;;
47147;SDS011;32900;47.498;8.738;2022-09-01T17:44:12;5.03;;;2.63;;
47147;SDS011;32900;47.498;8.738;2022-09-01T17:46:58;4.45;;;2.88;;
47147;SDS011;32900;47.498;8.738;2022-09-01T17:49:49;5.53;;;2.90;;
47147;SDS011;32900;47.498;8.738;2022-09-01T17:52:43;6.40;;;3.67;;
47147;SDS011;32900;47.498;8.738;2022-09-01T18:00:51;5.38;;;3.20;;
47147;SDS011;32900;47.498;8.738;2022-09-01T18:11:16;5.28;;;3.25;;
47147;SDS011;32900;47.498;8.738;2022-09-01T18:14:08;4.88;;;3.35;;
47147;SDS011;32900;47.498;8.738;2022-09-01T18:16:50;5.45;;;3.88;;
47147;SDS011;32900;47.498;8.738;2022-09-01T18:19:32;5.00;;;3.40;;
47147;SDS011;32900;47.498;8.738;2022-09-01T18:22:03;5.47;;;3.58;;
47147;SDS011;32900;47.498;8.738;2022-09-01T18:24:39;5.25;;;3.95;;
47147;SDS011;32900;47.498;8.738;2022-09-01T18:27:30;5.32;;;3.35;;